sensor_id;sensor_type;location;lat;lon;timestamp;pressure;altitude;pressure_sealevel;temperature;humidity
54978;BME280;40873;47.522;19.106;2023-07-13T00:01:53;100105.75;;;23.52;100.00
54978;BME280;40873;47.522;19.106;2023-07-13T00:04:22;100101.75;;;23.48;100.00
54978;BME280;40873;47.522;19.106;2023-07-13T00:06:50;100096.81;;;23.37;100.00
54978;BME280;40873;47.522;19.106;2023-07-13T00:09:18;100106.34;;;23.24;100.00
54978;BME280;40873;47.522;19.106;2023-07-13T00:11:50;100094.88;;;23.22;100.00
54978;BME280;40873;47.522;19.106;2023-07-13T00:14:18;100090.78;;;23.12;100.00
54978;BME280;40873;47.522;19.106;2023-07-13T00:16:46;100065.44;;;23.06;100.00
54978;BME280;40873;47.522;19.106;2023-07-13T00:19:13;100056.41;;;22.99;100.00
54978;BME280;40873;47.522;19.106;2023-07-13T00:21:41;100051.03;;;22.99;100.00
54978;BME280;40873;47.522;19.106;2023-07-13T00:24:11;100043.44;;;23.03;100.00
54978;BME280;40873;47.522;19.106;2023-07-13T00:26:43;100015.53;;;23.04;100.00
54978;BME280;40873;47.522;19.106;2023-07-13T00:29:13;100009.84;;;22.98;100.00
54978;BME280;40873;47.522;19.106;2023-07-13T00:31:40;99999.16;;;22.90;100.00
54978;BME280;40873;47.522;19.106;2023-07-13T00:34:07;99992.78;;;22.83;100.00
54978;BME280;40873;47.522;19.106;2023-07-13T00:36:35;99974.31;;;22.80;100.00
54978;BME280;40873;47.522;19.106;2023-07-13T00:39:03;99966.63;;;22.77;100.00
54978;BME280;40873;47.522;19.106;2023-07-13T00:41:31;99957.06;;;22.75;100.00
54978;BME280;40873;47.522;19.106;2023-07-13T00:43:59;99948.50;;;22.71;100.00
54978;BME280;40873;47.522;19.106;2023-07-13T00:46:29;99955.75;;;22.70;100.00
54978;BME280;40873;47.522;19.106;2023-07-13T00:49:00;99957.59;;;22.70;100.00
54978;BME280;40873;47.522;19.106;2023-07-13T00:51:35;99965.66;;;22.70;100.00
54978;BME280;40873;47.522;19.106;2023-07-13T00:54:06;99954.53;;;22.73;100.00
54978;BME280;40873;47.522;19.106;2023-07-13T00:56:34;99937.75;;;22.71;100.00
54978;BME280;40873;47.522;19.106;2023-07-13T00:59:03;99933.50;;;22.77;100.00
54978;BME280;40873;47.522;19.106;2023-07-13T01:01:33;99934.72;;;22.74;100.00
54978;BME280;40873;47.522;19.106;2023-07-13T01:04:00;99936.91;;;22.70;100.00
54978;BME280;40873;47.522;19.106;2023-07-13T01:06:27;99933.41;;;22.70;100.00
54978;BME280;40873;47.522;19.106;2023-07-13T01:08:56;99929.50;;;22.73;100.00
54978;BME280;40873;47.522;19.106;2023-07-13T01:11:26;99925.44;;;22.77;100.00
54978;BME280;40873;47.522;19.106;2023-07-13T01:13:53;99921.28;;;22.74;100.00
54978;BME280;40873;47.522;19.106;2023-07-13T01:16:25;99934.16;;;22.79;100.00
54978;BME280;40873;47.522;19.106;2023-07-13T01:18:53;99931.16;;;22.74;100.00
54978;BME280;40873;47.522;19.106;2023-07-13T01:21:20;99941.84;;;22.67;100.00
54978;BME280;40873;47.522;19.106;2023-07-13T01:23:47;99944.03;;;22.63;100.00
54978;BME280;40873;47.522;19.106;2023-07-13T01:26:15;99945.06;;;22.62;100.00
54978;BME280;40873;47.522;19.106;2023-07-13T01:28:43;99930.97;;;22.60;100.00
54978;BME280;40873;47.522;19.106;2023-07-13T01:31:11;99921.38;;;22.58;100.00
54978;BME280;40873;47.522;19.106;2023-07-13T01:33:39;99948.66;;;22.55;100.00
54978;BME280;40873;47.522;19.106;2023-07-13T01:36:08;99937.59;;;22.50;100.00
54978;BME280;40873;47.522;19.106;2023-07-13T01:38:36;99931.72;;;22.46;100.00
54978;BME280;40873;47.522;19.106;2023-07-13T01:41:04;99918.66;;;22.43;100.00
54978;BME280;40873;47.522;19.106;2023-07-13T01:43:31;99919.19;;;22.38;100.00
54978;BME280;40873;47.522;19.106;2023-07-13T01:45:59;99919.38;;;22.37;100.00
54978;BME280;40873;47.522;19.106;2023-07-13T01:48:46;99906.00;;;22.29;100.00
54978;BME280;40873;47.522;19.106;2023-07-13T01:51:13;99906.63;;;22.31;100.00
54978;BME280;40873;47.522;19.106;2023-07-13T01:53:40;99904.66;;;22.25;100.00
54978;BME280;40873;47.522;19.106;2023-07-13T01:56:07;99899.47;;;22.23;100.00
54978;BME280;40873;47.522;19.106;2023-07-13T01:58:35;99897.69;;;22.15;100.00
54978;BME280;40873;47.522;19.106;2023-07-13T02:01:02;99893.50;;;22.13;100.00
54978;BME280;40873;47.522;19.106;2023-07-13T02:03:29;99888.13;;;22.13;100.00
54978;BME280;40873;47.522;19.106;2023-07-13T02:05:56;99884.63;;;22.12;100.00
54978;BME280;40873;47.522;19.106;2023-07-13T02:08:23;99888.31;;;22.11;100.00
54978;BME280;40873;47.522;19.106;2023-07-13T02:10:50;99886.81;;;22.09;100.00
54978;BME280;40873;47.522;19.106;2023-07-13T02:13:17;99886.47;;;22.12;100.00
54978;BME280;40873;47.522;19.106;2023-07-13T02:15:44;99890.66;;;22.06;100.00
54978;BME280;40873;47.522;19.106;2023-07-13T02:18:11;99900.09;;;22.02;100.00
54978;BME280;40873;47.522;19.106;2023-07-13T02:20:38;99902.13;;;22.00;100.00
54978;BME280;40873;47.522;19.106;2023-07-13T02:23:05;99907.31;;;22.02;100.00
54978;BME280;40873;47.522;19.106;2023-07-13T02:25:35;99907.81;;;22.05;100.00
54978;BME280;40873;47.522;19.106;2023-07-13T02:28:02;99907.13;;;22.03;100.00
54978;BME280;40873;47.522;19.106;2023-07-13T02:30:30;99901.28;;;22.00;100.00
54978;BME280;40873;47.522;19.106;2023-07-13T02:32:57;99907.81;;;21.97;100.00
54978;BME280;40873;47.522;19.106;2023-07-13T02:35:25;99902.16;;;21.92;100.00
54978;BME280;40873;47.522;19.106;2023-07-13T02:37:52;99907.03;;;21.88;100.00
54978;BME280;40873;47.522;19.106;2023-07-13T02:40:19;99914.78;;;21.83;100.00
54978;BME280;40873;47.522;19.106;2023-07-13T02:42:46;99913.28;;;21.81;100.00
54978;BME280;40873;47.522;19.106;2023-07-13T02:45:14;99916.34;;;21.78;100.00
54978;BME280;40873;47.522;19.106;2023-07-13T02:47:41;99896.03;;;21.75;100.00
54978;BME280;40873;47.522;19.106;2023-07-13T02:50:09;99909.63;;;21.74;100.00
54978;BME280;40873;47.522;19.106;2023-07-13T02:52:36;99912.19;;;21.67;100.00
54978;BME280;40873;47.522;19.106;2023-07-13T02:55:03;99920.63;;;21.56;100.00
54978;BME280;40873;47.522;19.106;2023-07-13T02:57:30;99919.78;;;21.55;100.00
54978;BME280;40873;47.522;19.106;2023-07-13T03:00:01;99933.38;;;21.54;100.00
54978;BME280;40873;47.522;19.106;2023-07-13T03:02:32;99923.50;;;21.46;100.00
54978;BME280;40873;47.522;19.106;2023-07-13T03:05:00;99928.53;;;21.41;100.00
54978;BME280;40873;47.522;19.106;2023-07-13T03:07:27;99934.94;;;21.40;100.00
54978;BME280;40873;47.522;19.106;2023-07-13T03:09:57;99937.63;;;21.40;100.00
54978;BME280;40873;47.522;19.106;2023-07-13T03:12:25;99947.50;;;21.40;100.00
54978;BME280;40873;47.522;19.106;2023-07-13T03:14:52;99952.41;;;21.36;100.00
54978;BME280;40873;47.522;19.106;2023-07-13T03:17:19;99955.91;;;21.37;100.00
54978;BME280;40873;47.522;19.106;2023-07-13T03:19:46;99953.91;;;21.39;100.00
54978;BME280;40873;47.522;19.106;2023-07-13T03:22:17;99960.44;;;21.36;100.00
54978;BME280;40873;47.522;19.106;2023-07-13T03:24:45;99953.91;;;21.39;100.00
54978;BME280;40873;47.522;19.106;2023-07-13T03:27:12;99948.03;;;21.43;100.00
54978;BME280;40873;47.522;19.106;2023-07-13T03:29:40;99939.97;;;21.43;100.00
54978;BME280;40873;47.522;19.106;2023-07-13T03:32:07;99941.63;;;21.44;100.00
54978;BME280;40873;47.522;19.106;2023-07-13T03:34:34;99948.72;;;21.37;100.00
54978;BME280;40873;47.522;19.106;2023-07-13T03:37:01;99949.53;;;21.38;100.00
54978;BME280;40873;47.522;19.106;2023-07-13T03:39:28;99924.53;;;21.45;100.00
54978;BME280;40873;47.522;19.106;2023-07-13T03:41:55;99928.38;;;21.51;100.00
54978;BME280;40873;47.522;19.106;2023-07-13T03:44:22;99935.72;;;21.57;100.00
54978;BME280;40873;47.522;19.106;2023-07-13T03:46:49;99951.97;;;21.64;100.00
54978;BME280;40873;47.522;19.106;2023-07-13T03:49:16;99963.19;;;21.67;100.00
54978;BME280;40873;47.522;19.106;2023-07-13T03:51:43;99952.28;;;21.69;100.00
54978;BME280;40873;47.522;19.106;2023-07-13T03:54:13;99961.84;;;21.71;100.00
54978;BME280;40873;47.522;19.106;2023-07-13T03:56:40;99962.69;;;21.72;100.00
54978;BME280;40873;47.522;19.106;2023-07-13T03:59:07;99957.66;;;21.69;100.00
54978;BME280;40873;47.522;19.106;2023-07-13T04:01:34;99952.41;;;21.75;100.00
54978;BME280;40873;47.522;19.106;2023-07-13T04:04:01;99957.78;;;21.75;100.00
54978;BME280;40873;47.522;19.106;2023-07-13T04:06:30;99949.41;;;21.78;100.00
54978;BME280;40873;47.522;19.106;2023-07-13T04:09:00;99962.81;;;21.78;100.00
54978;BME280;40873;47.522;19.106;2023-07-13T04:11:29;99975.25;;;21.79;100.00
54978;BME280;40873;47.522;19.106;2023-07-13T04:13:56;99994.19;;;21.86;100.00
54978;BME280;40873;47.522;19.106;2023-07-13T04:16:24;100019.00;;;21.88;100.00
54978;BME280;40873;47.522;19.106;2023-07-13T04:18:51;100030.75;;;21.87;100.00
54978;BME280;40873;47.522;19.106;2023-07-13T04:21:22;100038.31;;;21.92;100.00
54978;BME280;40873;47.522;19.106;2023-07-13T04:23:48;100047.38;;;21.91;100.00
54978;BME280;40873;47.522;19.106;2023-07-13T04:26:16;100042.69;;;21.84;100.00
54978;BME280;40873;47.522;19.106;2023-07-13T04:28:43;100029.78;;;21.80;100.00
54978;BME280;40873;47.522;19.106;2023-07-13T04:31:10;100033.47;;;21.79;100.00
54978;BME280;40873;47.522;19.106;2023-07-13T04:33:37;100032.28;;;21.81;100.00
54978;BME280;40873;47.522;19.106;2023-07-13T04:36:05;100042.50;;;21.86;100.00
54978;BME280;40873;47.522;19.106;2023-07-13T04:38:32;100046.88;;;21.87;100.00
54978;BME280;40873;47.522;19.106;2023-07-13T04:41:01;100058.13;;;21.91;100.00
54978;BME280;40873;47.522;19.106;2023-07-13T04:43:29;100053.59;;;21.91;100.00
54978;BME280;40873;47.522;19.106;2023-07-13T04:45:57;100061.09;;;21.96;100.00
54978;BME280;40873;47.522;19.106;2023-07-13T04:48:24;100068.00;;;21.98;100.00
54978;BME280;40873;47.522;19.106;2023-07-13T04:50:56;100069.66;;;21.99;100.00
54978;BME280;40873;47.522;19.106;2023-07-13T04:53:24;100073.84;;;22.02;100.00
54978;BME280;40873;47.522;19.106;2023-07-13T04:55:51;100087.78;;;22.05;100.00
54978;BME280;40873;47.522;19.106;2023-07-13T04:58:18;100092.66;;;22.02;100.00
54978;BME280;40873;47.522;19.106;2023-07-13T05:00:45;100099.69;;;22.03;100.00
54978;BME280;40873;47.522;19.106;2023-07-13T05:03:12;100107.94;;;22.01;100.00
54978;BME280;40873;47.522;19.106;2023-07-13T05:05:40;100121.34;;;22.01;100.00
54978;BME280;40873;47.522;19.106;2023-07-13T05:08:06;100143.34;;;21.97;100.00
54978;BME280;40873;47.522;19.106;2023-07-13T05:10:35;100167.72;;;21.95;100.00
54978;BME280;40873;47.522;19.106;2023-07-13T05:13:02;100187.72;;;21.84;100.00
54978;BME280;40873;47.522;19.106;2023-07-13T05:15:30;100213.88;;;21.66;100.00
54978;BME280;40873;47.522;19.106;2023-07-13T05:17:56;100245.44;;;21.56;100.00
54978;BME280;40873;47.522;19.106;2023-07-13T05:20:24;100243.38;;;21.42;100.00
54978;BME280;40873;47.522;19.106;2023-07-13T05:22:51;100252.94;;;21.28;100.00
54978;BME280;40873;47.522;19.106;2023-07-13T05:25:18;100243.25;;;21.01;100.00
54978;BME280;40873;47.522;19.106;2023-07-13T05:27:45;100242.09;;;20.69;100.00
54978;BME280;40873;47.522;19.106;2023-07-13T05:30:14;100252.94;;;20.34;100.00
54978;BME280;40873;47.522;19.106;2023-07-13T05:32:41;100254.97;;;20.14;100.00
54978;BME280;40873;47.522;19.106;2023-07-13T05:35:08;100254.91;;;20.06;100.00
54978;BME280;40873;47.522;19.106;2023-07-13T05:37:37;100254.31;;;19.94;100.00
54978;BME280;40873;47.522;19.106;2023-07-13T05:40:05;100247.81;;;19.96;100.00
54978;BME280;40873;47.522;19.106;2023-07-13T05:42:32;100236.06;;;19.89;100.00
54978;BME280;40873;47.522;19.106;2023-07-13T05:44:59;100234.34;;;19.88;100.00
54978;BME280;40873;47.522;19.106;2023-07-13T05:47:26;100233.00;;;19.84;100.00
54978;BME280;40873;47.522;19.106;2023-07-13T05:49:53;100246.38;;;19.84;100.00
54978;BME280;40873;47.522;19.106;2023-07-13T05:52:20;100256.25;;;19.84;100.00
54978;BME280;40873;47.522;19.106;2023-07-13T05:54:47;100236.59;;;19.75;100.00
54978;BME280;40873;47.522;19.106;2023-07-13T05:57:14;100229.94;;;19.79;100.00
54978;BME280;40873;47.522;19.106;2023-07-13T05:59:42;100214.03;;;19.78;100.00
54978;BME280;40873;47.522;19.106;2023-07-13T06:02:09;100208.06;;;19.66;100.00
54978;BME280;40873;47.522;19.106;2023-07-13T06:04:37;100213.50;;;19.56;100.00
54978;BME280;40873;47.522;19.106;2023-07-13T06:07:04;100213.19;;;19.41;100.00
54978;BME280;40873;47.522;19.106;2023-07-13T06:09:31;100202.00;;;19.46;100.00
54978;BME280;40873;47.522;19.106;2023-07-13T06:11:58;100176.63;;;19.50;100.00
54978;BME280;40873;47.522;19.106;2023-07-13T06:14:26;100129.03;;;19.36;100.00
54978;BME280;40873;47.522;19.106;2023-07-13T06:16:53;100091.38;;;19.29;100.00
54978;BME280;40873;47.522;19.106;2023-07-13T06:19:20;99983.38;;;19.30;100.00
54978;BME280;40873;47.522;19.106;2023-07-13T06:21:47;99782.09;;;19.20;100.00
54978;BME280;40873;47.522;19.106;2023-07-13T06:24:14;99852.47;;;19.21;100.00
54978;BME280;40873;47.522;19.106;2023-07-13T06:26:41;99940.53;;;19.22;100.00
54978;BME280;40873;47.522;19.106;2023-07-13T06:29:08;99954.63;;;19.32;100.00
54978;BME280;40873;47.522;19.106;2023-07-13T06:31:35;99881.72;;;19.22;100.00
54978;BME280;40873;47.522;19.106;2023-07-13T06:34:02;99837.25;;;19.21;100.00
54978;BME280;40873;47.522;19.106;2023-07-13T06:36:29;99847.16;;;19.37;100.00
54978;BME280;40873;47.522;19.106;2023-07-13T06:38:56;99876.44;;;19.47;100.00
54978;BME280;40873;47.522;19.106;2023-07-13T06:41:23;99889.88;;;19.55;100.00
54978;BME280;40873;47.522;19.106;2023-07-13T06:43:53;99877.41;;;19.63;100.00
54978;BME280;40873;47.522;19.106;2023-07-13T06:46:21;99880.78;;;19.82;100.00
54978;BME280;40873;47.522;19.106;2023-07-13T06:48:49;99883.69;;;19.96;100.00
54978;BME280;40873;47.522;19.106;2023-07-13T06:51:16;99872.66;;;20.16;100.00
54978;BME280;40873;47.522;19.106;2023-07-13T06:53:44;99864.97;;;20.21;100.00
54978;BME280;40873;47.522;19.106;2023-07-13T06:56:11;99888.22;;;20.29;100.00
54978;BME280;40873;47.522;19.106;2023-07-13T06:58:38;99863.94;;;20.30;100.00
54978;BME280;40873;47.522;19.106;2023-07-13T07:01:05;99867.97;;;20.42;100.00
54978;BME280;40873;47.522;19.106;2023-07-13T07:03:34;99878.59;;;20.52;100.00
54978;BME280;40873;47.522;19.106;2023-07-13T07:06:20;99874.56;;;20.72;100.00
54978;BME280;40873;47.522;19.106;2023-07-13T07:08:50;99862.09;;;20.96;100.00
54978;BME280;40873;47.522;19.106;2023-07-13T07:11:20;99887.19;;;21.11;100.00
54978;BME280;40873;47.522;19.106;2023-07-13T07:13:50;99896.38;;;21.33;100.00
54978;BME280;40873;47.522;19.106;2023-07-13T07:16:18;99908.25;;;21.47;100.00
54978;BME280;40873;47.522;19.106;2023-07-13T07:18:46;99966.72;;;21.68;100.00
54978;BME280;40873;47.522;19.106;2023-07-13T07:21:14;100024.75;;;21.77;100.00
54978;BME280;40873;47.522;19.106;2023-07-13T07:23:42;100024.41;;;21.80;100.00
54978;BME280;40873;47.522;19.106;2023-07-13T07:26:09;100024.38;;;21.88;100.00
54978;BME280;40873;47.522;19.106;2023-07-13T07:28:37;100047.06;;;21.85;100.00
54978;BME280;40873;47.522;19.106;2023-07-13T07:31:08;100054.78;;;21.80;100.00
54978;BME280;40873;47.522;19.106;2023-07-13T07:33:38;100074.59;;;21.79;100.00
54978;BME280;40873;47.522;19.106;2023-07-13T07:36:05;100073.69;;;21.95;100.00
54978;BME280;40873;47.522;19.106;2023-07-13T07:38:36;100072.50;;;22.06;100.00
54978;BME280;40873;47.522;19.106;2023-07-13T07:41:03;100079.06;;;22.11;100.00
54978;BME280;40873;47.522;19.106;2023-07-13T07:43:34;100095.50;;;22.08;100.00
54978;BME280;40873;47.522;19.106;2023-07-13T07:46:01;100080.75;;;21.96;100.00
54978;BME280;40873;47.522;19.106;2023-07-13T07:48:30;100092.97;;;22.07;100.00
54978;BME280;40873;47.522;19.106;2023-07-13T07:50:57;100091.09;;;22.24;100.00
54978;BME280;40873;47.522;19.106;2023-07-13T07:53:24;100090.75;;;22.27;100.00
54978;BME280;40873;47.522;19.106;2023-07-13T07:55:51;100104.47;;;22.32;100.00
54978;BME280;40873;47.522;19.106;2023-07-13T07:58:21;100098.13;;;22.25;100.00
54978;BME280;40873;47.522;19.106;2023-07-13T08:00:51;100098.69;;;22.20;100.00
54978;BME280;40873;47.522;19.106;2023-07-13T08:03:21;100099.09;;;22.32;100.00
54978;BME280;40873;47.522;19.106;2023-07-13T08:05:53;100099.91;;;22.49;100.00
54978;BME280;40873;47.522;19.106;2023-07-13T08:08:24;100096.63;;;22.61;100.00
54978;BME280;40873;47.522;19.106;2023-07-13T08:10:51;100093.44;;;22.58;100.00
54978;BME280;40873;47.522;19.106;2023-07-13T08:13:23;100074.75;;;22.64;100.00
54978;BME280;40873;47.522;19.106;2023-07-13T08:15:50;100074.56;;;22.74;100.00
54978;BME280;40873;47.522;19.106;2023-07-13T08:18:17;100061.06;;;22.82;100.00
54978;BME280;40873;47.522;19.106;2023-07-13T08:20:44;100072.81;;;22.81;100.00
54978;BME280;40873;47.522;19.106;2023-07-13T08:23:12;100076.91;;;23.00;100.00
54978;BME280;40873;47.522;19.106;2023-07-13T08:25:38;100081.94;;;23.03;100.00
54978;BME280;40873;47.522;19.106;2023-07-13T08:28:06;100089.47;;;23.08;100.00
54978;BME280;40873;47.522;19.106;2023-07-13T08:30:32;100088.88;;;23.20;100.00
54978;BME280;40873;47.522;19.106;2023-07-13T08:33:00;100092.44;;;23.36;100.00
54978;BME280;40873;47.522;19.106;2023-07-13T08:35:27;100091.13;;;23.32;100.00
54978;BME280;40873;47.522;19.106;2023-07-13T08:37:55;100085.78;;;23.46;100.00
54978;BME280;40873;47.522;19.106;2023-07-13T08:40:24;100090.56;;;23.59;100.00
54978;BME280;40873;47.522;19.106;2023-07-13T08:42:55;100098.16;;;23.78;100.00
54978;BME280;40873;47.522;19.106;2023-07-13T08:45:27;100090.81;;;23.87;100.00
54978;BME280;40873;47.522;19.106;2023-07-13T08:48:05;100095.66;;;24.06;100.00
54978;BME280;40873;47.522;19.106;2023-07-13T08:51:04;100101.03;;;24.21;100.00
54978;BME280;40873;47.522;19.106;2023-07-13T08:53:39;100111.16;;;24.49;100.00
54978;BME280;40873;47.522;19.106;2023-07-13T08:56:21;100114.81;;;24.77;100.00
54978;BME280;40873;47.522;19.106;2023-07-13T08:58:55;100108.97;;;24.95;98.88
54978;BME280;40873;47.522;19.106;2023-07-13T09:04:09;100110.50;;;25.40;96.50
54978;BME280;40873;47.522;19.106;2023-07-13T09:12:20;100111.69;;;25.59;95.06
54978;BME280;40873;47.522;19.106;2023-07-13T09:14:53;100110.75;;;25.46;94.96
54978;BME280;40873;47.522;19.106;2023-07-13T09:17:26;100106.47;;;25.58;94.61
54978;BME280;40873;47.522;19.106;2023-07-13T09:20:04;100110.66;;;25.60;94.92
54978;BME280;40873;47.522;19.106;2023-07-13T09:22:37;100107.13;;;25.81;95.76
54978;BME280;40873;47.522;19.106;2023-07-13T09:27:47;100113.19;;;26.24;91.56
54978;BME280;40873;47.522;19.106;2023-07-13T09:32:47;100111.72;;;26.22;89.10
54978;BME280;40873;47.522;19.106;2023-07-13T09:35:19;100105.31;;;26.30;90.36
54978;BME280;40873;47.522;19.106;2023-07-13T09:37:48;100111.69;;;26.50;92.28
54978;BME280;40873;47.522;19.106;2023-07-13T09:40:49;100115.03;;;26.59;89.24
54978;BME280;40873;47.522;19.106;2023-07-13T09:43:15;100121.75;;;26.76;88.01
54978;BME280;40873;47.522;19.106;2023-07-13T09:45:45;100123.69;;;26.95;85.47
54978;BME280;40873;47.522;19.106;2023-07-13T09:48:16;100130.31;;;26.80;83.39
54978;BME280;40873;47.522;19.106;2023-07-13T09:50:44;100130.19;;;26.46;86.24
54978;BME280;40873;47.522;19.106;2023-07-13T09:53:16;100122.75;;;26.62;88.88
54978;BME280;40873;47.522;19.106;2023-07-13T09:55:46;100128.19;;;26.68;86.66
54978;BME280;40873;47.522;19.106;2023-07-13T09:58:25;100127.78;;;26.71;85.31
54978;BME280;40873;47.522;19.106;2023-07-13T10:01:03;100128.19;;;26.75;86.97
54978;BME280;40873;47.522;19.106;2023-07-13T10:03:36;100119.72;;;26.85;86.57
54978;BME280;40873;47.522;19.106;2023-07-13T10:06:21;100121.97;;;26.81;85.25
54978;BME280;40873;47.522;19.106;2023-07-13T10:08:54;100125.78;;;27.00;86.25
54978;BME280;40873;47.522;19.106;2023-07-13T10:11:27;100128.34;;;27.15;84.29
54978;BME280;40873;47.522;19.106;2023-07-13T10:13:57;100128.59;;;27.33;82.60
54978;BME280;40873;47.522;19.106;2023-07-13T10:16:28;100121.28;;;27.14;80.42
54978;BME280;40873;47.522;19.106;2023-07-13T10:19:24;100121.47;;;27.12;80.12
54978;BME280;40873;47.522;19.106;2023-07-13T10:21:56;100114.63;;;27.36;80.95
54978;BME280;40873;47.522;19.106;2023-07-13T10:24:29;100124.19;;;27.52;79.18
54978;BME280;40873;47.522;19.106;2023-07-13T10:29:39;100128.78;;;27.65;77.59
54978;BME280;40873;47.522;19.106;2023-07-13T10:32:12;100126.31;;;27.76;77.89
54978;BME280;40873;47.522;19.106;2023-07-13T10:34:43;100131.31;;;27.73;77.83
54978;BME280;40873;47.522;19.106;2023-07-13T10:37:19;100141.94;;;27.81;76.77
54978;BME280;40873;47.522;19.106;2023-07-13T10:39:50;100139.03;;;27.89;76.18
54978;BME280;40873;47.522;19.106;2023-07-13T10:42:28;100126.88;;;28.11;75.91
54978;BME280;40873;47.522;19.106;2023-07-13T10:44:55;100136.25;;;28.16;73.29
54978;BME280;40873;47.522;19.106;2023-07-13T10:47:24;100133.13;;;28.19;72.95
54978;BME280;40873;47.522;19.106;2023-07-13T10:49:54;100134.78;;;28.26;71.08
54978;BME280;40873;47.522;19.106;2023-07-13T10:52:45;100127.75;;;27.99;71.87
54978;BME280;40873;47.522;19.106;2023-07-13T10:58:14;100131.09;;;27.88;72.09
54978;BME280;40873;47.522;19.106;2023-07-13T11:03:58;100125.50;;;27.76;69.64
54978;BME280;40873;47.522;19.106;2023-07-13T11:06:37;100124.38;;;28.17;69.80
54978;BME280;40873;47.522;19.106;2023-07-13T11:11:48;100115.88;;;28.64;67.74
54978;BME280;40873;47.522;19.106;2023-07-13T11:14:36;100119.31;;;28.85;68.82
54978;BME280;40873;47.522;19.106;2023-07-13T11:22:50;100132.31;;;28.76;66.29
54978;BME280;40873;47.522;19.106;2023-07-13T11:30:40;100121.34;;;29.03;66.60
54978;BME280;40873;47.522;19.106;2023-07-13T11:35:59;100114.28;;;29.58;64.81
54978;BME280;40873;47.522;19.106;2023-07-13T11:38:44;100118.91;;;29.76;62.52
54978;BME280;40873;47.522;19.106;2023-07-13T11:41:26;100106.94;;;30.02;61.70
54978;BME280;40873;47.522;19.106;2023-07-13T11:43:55;100098.84;;;29.77;61.84
54978;BME280;40873;47.522;19.106;2023-07-13T11:46:25;100109.25;;;29.55;59.99
54978;BME280;40873;47.522;19.106;2023-07-13T11:48:53;100114.16;;;29.71;59.74
54978;BME280;40873;47.522;19.106;2023-07-13T11:51:25;100113.09;;;29.72;60.26
54978;BME280;40873;47.522;19.106;2023-07-13T11:53:54;100114.47;;;29.82;58.41
54978;BME280;40873;47.522;19.106;2023-07-13T11:56:25;100110.34;;;29.97;58.33
54978;BME280;40873;47.522;19.106;2023-07-13T11:58:55;100105.47;;;29.81;59.42
54978;BME280;40873;47.522;19.106;2023-07-13T12:01:28;100117.81;;;30.02;58.39
54978;BME280;40873;47.522;19.106;2023-07-13T12:04:03;100113.03;;;30.22;57.89
54978;BME280;40873;47.522;19.106;2023-07-13T12:06:34;100112.31;;;30.09;59.06
54978;BME280;40873;47.522;19.106;2023-07-13T12:09:15;100099.25;;;30.54;59.50
54978;BME280;40873;47.522;19.106;2023-07-13T12:11:46;100097.72;;;30.76;54.99
54978;BME280;40873;47.522;19.106;2023-07-13T12:14:14;100091.69;;;30.74;56.24
54978;BME280;40873;47.522;19.106;2023-07-13T12:16:42;100081.72;;;31.10;58.45
54978;BME280;40873;47.522;19.106;2023-07-13T12:19:26;100089.81;;;31.17;53.76
54978;BME280;40873;47.522;19.106;2023-07-13T12:21:56;100087.91;;;31.17;55.63
54978;BME280;40873;47.522;19.106;2023-07-13T12:24:25;100090.53;;;30.82;55.48
54978;BME280;40873;47.522;19.106;2023-07-13T12:27:00;100099.13;;;30.67;54.73
54978;BME280;40873;47.522;19.106;2023-07-13T12:29:29;100099.13;;;30.67;56.09
54978;BME280;40873;47.522;19.106;2023-07-13T12:31:57;100089.66;;;30.70;55.05
54978;BME280;40873;47.522;19.106;2023-07-13T12:34:26;100088.34;;;30.72;55.52
54978;BME280;40873;47.522;19.106;2023-07-13T12:36:59;100086.31;;;30.49;55.76
54978;BME280;40873;47.522;19.106;2023-07-13T12:39:37;100077.91;;;30.51;58.00
54978;BME280;40873;47.522;19.106;2023-07-13T12:42:26;100078.75;;;30.70;58.47
54978;BME280;40873;47.522;19.106;2023-07-13T12:45:05;100070.31;;;31.01;55.28
54978;BME280;40873;47.522;19.106;2023-07-13T12:47:44;100083.63;;;31.09;56.04
54978;BME280;40873;47.522;19.106;2023-07-13T12:50:20;100079.66;;;31.24;55.38
54978;BME280;40873;47.522;19.106;2023-07-13T12:53:05;100078.03;;;31.04;53.63
54978;BME280;40873;47.522;19.106;2023-07-13T12:55:42;100083.38;;;30.69;54.25
54978;BME280;40873;47.522;19.106;2023-07-13T12:58:20;100086.41;;;30.43;55.98
54978;BME280;40873;47.522;19.106;2023-07-13T13:00:50;100088.03;;;30.62;54.31
54978;BME280;40873;47.522;19.106;2023-07-13T13:03:38;100078.06;;;30.56;55.15
54978;BME280;40873;47.522;19.106;2023-07-13T13:06:27;100079.25;;;30.78;54.76
54978;BME280;40873;47.522;19.106;2023-07-13T13:08:57;100083.53;;;30.86;54.79
54978;BME280;40873;47.522;19.106;2023-07-13T13:11:29;100087.91;;;30.87;52.63
54978;BME280;40873;47.522;19.106;2023-07-13T13:13:57;100076.97;;;30.27;52.96
54978;BME280;40873;47.522;19.106;2023-07-13T13:16:56;100083.44;;;30.63;53.96
54978;BME280;40873;47.522;19.106;2023-07-13T13:19:27;100068.56;;;30.47;54.05
54978;BME280;40873;47.522;19.106;2023-07-13T13:21:55;100065.31;;;30.38;54.50
54978;BME280;40873;47.522;19.106;2023-07-13T13:24:26;100066.75;;;30.89;53.17
54978;BME280;40873;47.522;19.106;2023-07-13T13:26:54;100066.13;;;30.75;53.93
54978;BME280;40873;47.522;19.106;2023-07-13T13:29:24;100053.97;;;30.90;52.19
54978;BME280;40873;47.522;19.106;2023-07-13T13:31:53;100055.56;;;31.09;52.93